KDNL/DNL METAR and TAF weather

Enter ICAO airport designator
Station Type Date Time Source
KDNL METAR 2019/06/19 06:53 UTC NOAA

KDNL 190653Z AUTO 00000KT 10SM -RA SCT004 BKN110 23/22 A2992 RMK AO2 RAB16 SLP126 P0000 T02330217


Station Type Date Time Source
KDNL Decoded METAR 2019/06/19 06:53 UTC NOAA

AUGUSTA DANIEL FIELD, GA, United States (KDNL) 33-28N 82-02W 130M
Jun 19, 2019 - 02:53 AM EDT / 2019.06.19 0653 UTC
Wind: Calm:0
Visibility: 10 mile(s):0
Sky conditions: mostly cloudy
Weather: light rain
Precipitation last hour: A trace
Temperature: 73.9 F (23.3 C)
Dew Point: 71.1 F (21.7 C)
Relative Humidity: 90%
Pressure (altimeter): 29.92 in. Hg (1013 hPa)
ob: KDNL 190653Z AUTO 00000KT 10SM -RA SCT004 BKN110 23/22 A2992 RMK AO2 RAB16 SLP126 P0000 T02330217
cycle: 7

Station Type Date Time Source
KDNL TAF 2019/06/19 06:42 UTC NOAA

TAF KDNL 190540Z 1906/2006 VRB03KT P6SM SCT080 BKN120
FM191000 VRB03KT P6SM BKN015
FM191500 24009KT P6SM SCT025 BKN040
FM200100 22005KT P6SM BKN250

Example: see airport list